sensor_id;sensor_type;location;lat;lon;timestamp;pressure;altitude;pressure_sealevel;temperature;humidity
43820;BME280;67762;52.476;6.046;2023-02-15T00:01:15;102933.94;;;0.24;81.62
43820;BME280;67762;52.476;6.046;2023-02-15T00:03:41;102934.81;;;0.23;81.45
43820;BME280;67762;52.476;6.046;2023-02-15T00:06:06;102926.94;;;0.23;81.58
43820;BME280;67762;52.476;6.046;2023-02-15T00:08:32;102932.34;;;0.18;81.40
43820;BME280;67762;52.476;6.046;2023-02-15T00:11:09;102929.81;;;0.15;81.47
43820;BME280;67762;52.476;6.046;2023-02-15T00:13:35;102927.38;;;0.09;81.88
43820;BME280;67762;52.476;6.046;2023-02-15T00:16:02;102933.56;;;0.07;81.50
43820;BME280;67762;52.476;6.046;2023-02-15T00:18:29;102939.78;;;0.04;81.81
43820;BME280;67762;52.476;6.046;2023-02-15T00:20:55;102932.84;;;0.02;81.95
43820;BME280;67762;52.476;6.046;2023-02-15T00:23:21;102932.91;;;0.00;81.59
43820;BME280;67762;52.476;6.046;2023-02-15T00:25:46;102929.44;;;-0.01;81.47
43820;BME280;67762;52.476;6.046;2023-02-15T00:28:12;102930.28;;;0.00;81.84
43820;BME280;67762;52.476;6.046;2023-02-15T00:30:37;102922.50;;;-0.03;81.54
43820;BME280;67762;52.476;6.046;2023-02-15T00:33:03;102921.72;;;-0.07;81.69
43820;BME280;67762;52.476;6.046;2023-02-15T00:35:28;102920.06;;;-0.09;81.69
43820;BME280;67762;52.476;6.046;2023-02-15T00:37:55;102924.47;;;-0.11;81.69
43820;BME280;67762;52.476;6.046;2023-02-15T00:40:22;102925.41;;;-0.14;81.72
43820;BME280;67762;52.476;6.046;2023-02-15T00:42:48;102915.22;;;-0.23;81.74
43820;BME280;67762;52.476;6.046;2023-02-15T00:45:14;102918.81;;;-0.27;82.06
43820;BME280;67762;52.476;6.046;2023-02-15T00:47:39;102916.28;;;-0.30;82.09
43820;BME280;67762;52.476;6.046;2023-02-15T00:50:05;102919.84;;;-0.32;82.29
43820;BME280;67762;52.476;6.046;2023-02-15T00:52:31;102918.25;;;-0.36;82.39
43820;BME280;67762;52.476;6.046;2023-02-15T00:54:57;102918.50;;;-0.45;82.01
43820;BME280;67762;52.476;6.046;2023-02-15T00:57:22;102918.56;;;-0.48;82.15
43820;BME280;67762;52.476;6.046;2023-02-15T00:59:48;102923.94;;;-0.53;81.96
43820;BME280;67762;52.476;6.046;2023-02-15T01:02:13;102916.19;;;-0.57;82.30
43820;BME280;67762;52.476;6.046;2023-02-15T01:04:39;102909.97;;;-0.53;81.97
43820;BME280;67762;52.476;6.046;2023-02-15T01:07:05;102923.69;;;-0.44;82.00
43820;BME280;67762;52.476;6.046;2023-02-15T01:09:32;102908.22;;;-0.53;82.27
43820;BME280;67762;52.476;6.046;2023-02-15T01:11:58;102910.84;;;-0.53;82.08
43820;BME280;67762;52.476;6.046;2023-02-15T01:14:25;102905.41;;;-0.47;82.04
43820;BME280;67762;52.476;6.046;2023-02-15T01:16:51;102902.75;;;-0.45;82.23
43820;BME280;67762;52.476;6.046;2023-02-15T01:19:16;102884.41;;;-0.47;81.88
43820;BME280;67762;52.476;6.046;2023-02-15T01:21:42;102880.03;;;-0.46;82.34
43820;BME280;67762;52.476;6.046;2023-02-15T01:24:14;102887.13;;;-0.50;82.00
43820;BME280;67762;52.476;6.046;2023-02-15T01:26:40;102878.44;;;-0.50;82.33
43820;BME280;67762;52.476;6.046;2023-02-15T01:29:06;102883.59;;;-0.47;82.48
43820;BME280;67762;52.476;6.046;2023-02-15T01:31:31;102879.31;;;-0.51;81.93
43820;BME280;67762;52.476;6.046;2023-02-15T01:33:57;102876.13;;;-0.63;82.26
43820;BME280;67762;52.476;6.046;2023-02-15T01:36:22;102876.13;;;-0.63;82.09
43820;BME280;67762;52.476;6.046;2023-02-15T01:38:48;102874.50;;;-0.67;82.51
43820;BME280;67762;52.476;6.046;2023-02-15T01:41:14;102870.41;;;-0.75;82.03
43820;BME280;67762;52.476;6.046;2023-02-15T01:43:59;102872.16;;;-0.77;82.35
43820;BME280;67762;52.476;6.046;2023-02-15T01:48:59;102860.00;;;-0.78;82.36
43820;BME280;67762;52.476;6.046;2023-02-15T01:51:29;102859.13;;;-0.79;82.00
43820;BME280;67762;52.476;6.046;2023-02-15T01:54:11;102852.97;;;-0.78;82.15
43820;BME280;67762;52.476;6.046;2023-02-15T01:56:40;102855.56;;;-0.76;82.31
43820;BME280;67762;52.476;6.046;2023-02-15T01:59:11;102850.31;;;-0.76;82.47
43820;BME280;67762;52.476;6.046;2023-02-15T02:01:38;102848.59;;;-0.77;82.37
43820;BME280;67762;52.476;6.046;2023-02-15T02:04:23;102846.88;;;-0.78;82.20
43820;BME280;67762;52.476;6.046;2023-02-15T02:06:50;102854.75;;;-0.78;82.46
43820;BME280;67762;52.476;6.046;2023-02-15T02:09:16;102852.78;;;-0.70;82.39
43820;BME280;67762;52.476;6.046;2023-02-15T02:11:44;102847.38;;;-0.66;81.97
43820;BME280;67762;52.476;6.046;2023-02-15T02:14:11;102843.97;;;-0.69;82.46
43820;BME280;67762;52.476;6.046;2023-02-15T02:27:40;102833.03;;;-1.14;82.33
43820;BME280;67762;52.476;6.046;2023-02-15T02:33:12;102820.25;;;-1.26;82.42
43820;BME280;67762;52.476;6.046;2023-02-15T02:35:54;102821.13;;;-1.27;82.42
43820;BME280;67762;52.476;6.046;2023-02-15T02:41:18;102816.72;;;-1.25;82.45
43820;BME280;67762;52.476;6.046;2023-02-15T02:44:13;102814.00;;;-1.22;82.83
43820;BME280;67762;52.476;6.046;2023-02-15T02:46:46;102808.75;;;-1.22;82.71
43820;BME280;67762;52.476;6.046;2023-02-15T02:49:12;102804.38;;;-1.20;82.25
43820;BME280;67762;52.476;6.046;2023-02-15T02:51:37;102812.25;;;-1.22;82.57
43820;BME280;67762;52.476;6.046;2023-02-15T02:54:05;102808.69;;;-1.19;82.20
43820;BME280;67762;52.476;6.046;2023-02-15T02:56:37;102806.19;;;-1.24;82.65
43820;BME280;67762;52.476;6.046;2023-02-15T03:01:36;102809.75;;;-1.26;82.50
43820;BME280;67762;52.476;6.046;2023-02-15T03:04:16;102798.41;;;-1.27;82.68
43820;BME280;67762;52.476;6.046;2023-02-15T03:06:56;102797.72;;;-1.33;82.56
43820;BME280;67762;52.476;6.046;2023-02-15T03:09:39;102787.28;;;-1.35;81.99
43820;BME280;67762;52.476;6.046;2023-02-15T03:12:08;102782.06;;;-1.35;82.67
43820;BME280;67762;52.476;6.046;2023-02-15T03:14:46;102784.69;;;-1.35;82.28
43820;BME280;67762;52.476;6.046;2023-02-15T03:17:13;102774.19;;;-1.35;82.48
43820;BME280;67762;52.476;6.046;2023-02-15T03:19:40;102773.31;;;-1.34;82.36
43820;BME280;67762;52.476;6.046;2023-02-15T03:22:08;102775.16;;;-1.39;82.91
43820;BME280;67762;52.476;6.046;2023-02-15T03:24:43;102772.75;;;-1.46;82.58
43820;BME280;67762;52.476;6.046;2023-02-15T03:27:14;102779.38;;;-1.33;82.59
43820;BME280;67762;52.476;6.046;2023-02-15T03:29:44;102768.81;;;-1.30;82.72
43820;BME280;67762;52.476;6.046;2023-02-15T03:32:12;102766.34;;;-1.35;82.98
43820;BME280;67762;52.476;6.046;2023-02-15T03:34:41;102761.03;;;-1.32;82.99
43820;BME280;67762;52.476;6.046;2023-02-15T03:37:15;102762.63;;;-1.26;83.01
43820;BME280;67762;52.476;6.046;2023-02-15T03:40:09;102759.13;;;-1.27;82.54
43820;BME280;67762;52.476;6.046;2023-02-15T03:43:40;102761.72;;;-1.25;82.57
43820;BME280;67762;52.476;6.046;2023-02-15T03:46:01;102764.38;;;-1.27;82.62
43820;BME280;67762;52.476;6.046;2023-02-15T03:48:34;102756.50;;;-1.25;82.57
43820;BME280;67762;52.476;6.046;2023-02-15T03:51:05;102758.03;;;-1.18;83.15
43820;BME280;67762;52.476;6.046;2023-02-15T03:53:52;102742.94;;;-1.08;82.78
43820;BME280;67762;52.476;6.046;2023-02-15T03:56:19;102743.81;;;-1.09;82.31
43820;BME280;67762;52.476;6.046;2023-02-15T03:58:45;102752.31;;;-1.01;82.76
43820;BME280;67762;52.476;6.046;2023-02-15T04:01:41;102749.63;;;-1.00;82.47
43820;BME280;67762;52.476;6.046;2023-02-15T04:04:33;102756.53;;;-0.96;82.99
43820;BME280;67762;52.476;6.046;2023-02-15T04:07:00;102753.69;;;-0.88;82.57
43820;BME280;67762;52.476;6.046;2023-02-15T04:09:26;102757.06;;;-0.85;82.33
43820;BME280;67762;52.476;6.046;2023-02-15T04:12:10;102747.47;;;-0.84;82.73
43820;BME280;67762;52.476;6.046;2023-02-15T04:14:36;102744.13;;;-0.89;82.61
43820;BME280;67762;52.476;6.046;2023-02-15T04:17:20;102748.59;;;-0.93;82.58
43820;BME280;67762;52.476;6.046;2023-02-15T04:19:45;102744.13;;;-0.89;82.89
43820;BME280;67762;52.476;6.046;2023-02-15T04:22:29;102744.16;;;-0.91;83.08
43820;BME280;67762;52.476;6.046;2023-02-15T04:25:14;102742.44;;;-0.92;82.64
43820;BME280;67762;52.476;6.046;2023-02-15T04:27:42;102741.59;;;-0.94;82.71
43820;BME280;67762;52.476;6.046;2023-02-15T04:30:09;102744.47;;;-1.01;82.85
43820;BME280;67762;52.476;6.046;2023-02-15T04:32:35;102741.78;;;-1.00;82.33
43820;BME280;67762;52.476;6.046;2023-02-15T04:35:01;102738.41;;;-1.03;83.05
43820;BME280;67762;52.476;6.046;2023-02-15T04:37:27;102736.38;;;-0.94;82.46
43820;BME280;67762;52.476;6.046;2023-02-15T04:39:53;102741.59;;;-0.92;83.20
43820;BME280;67762;52.476;6.046;2023-02-15T04:42:18;102740.63;;;-0.90;82.86
43820;BME280;67762;52.476;6.046;2023-02-15T04:44:44;102740.75;;;-0.94;83.02
43820;BME280;67762;52.476;6.046;2023-02-15T04:47:10;102726.97;;;-1.01;82.72
43820;BME280;67762;52.476;6.046;2023-02-15T04:49:35;102732.31;;;-1.04;82.46
43820;BME280;67762;52.476;6.046;2023-02-15T04:52:01;102733.28;;;-1.08;83.06
43820;BME280;67762;52.476;6.046;2023-02-15T04:54:26;102726.38;;;-1.10;83.03
43820;BME280;67762;52.476;6.046;2023-02-15T04:56:52;102726.38;;;-1.10;82.81
43820;BME280;67762;52.476;6.046;2023-02-15T04:59:17;102727.09;;;-1.05;83.10
43820;BME280;67762;52.476;6.046;2023-02-15T05:01:43;102726.13;;;-1.01;82.89
43820;BME280;67762;52.476;6.046;2023-02-15T05:04:08;102723.41;;;-0.98;82.88
43820;BME280;67762;52.476;6.046;2023-02-15T05:06:34;102719.91;;;-0.97;83.21
43820;BME280;67762;52.476;6.046;2023-02-15T05:09:00;102724.91;;;-0.90;83.17
43820;BME280;67762;52.476;6.046;2023-02-15T05:11:26;102724.69;;;-0.82;83.33
43820;BME280;67762;52.476;6.046;2023-02-15T05:13:51;102719.59;;;-0.87;83.04
43820;BME280;67762;52.476;6.046;2023-02-15T05:16:17;102715.94;;;-0.83;83.21
43820;BME280;67762;52.476;6.046;2023-02-15T05:18:43;102721.06;;;-0.78;83.02
43820;BME280;67762;52.476;6.046;2023-02-15T05:21:08;102713.94;;;-0.75;83.10
43820;BME280;67762;52.476;6.046;2023-02-15T05:23:34;102722.78;;;-0.77;83.34
43820;BME280;67762;52.476;6.046;2023-02-15T05:26:00;102713.88;;;-0.72;83.02
43820;BME280;67762;52.476;6.046;2023-02-15T05:28:44;102705.03;;;-0.69;83.22
43820;BME280;67762;52.476;6.046;2023-02-15T05:31:15;102714.41;;;-0.61;83.12
43820;BME280;67762;52.476;6.046;2023-02-15T05:33:42;102710.53;;;-0.49;83.29
43820;BME280;67762;52.476;6.046;2023-02-15T05:36:09;102704.22;;;-0.42;83.21
43820;BME280;67762;52.476;6.046;2023-02-15T05:38:34;102710.81;;;-0.30;83.59
43820;BME280;67762;52.476;6.046;2023-02-15T05:41:03;102703.31;;;-0.15;83.66
43820;BME280;67762;52.476;6.046;2023-02-15T05:43:30;102699.22;;;0.03;83.28
43820;BME280;67762;52.476;6.046;2023-02-15T05:45:56;102702.50;;;0.10;83.67
43820;BME280;67762;52.476;6.046;2023-02-15T05:48:23;102703.25;;;0.13;83.78
43820;BME280;67762;52.476;6.046;2023-02-15T05:51:10;102689.22;;;0.14;83.71
43820;BME280;67762;52.476;6.046;2023-02-15T05:53:39;102694.31;;;0.19;83.80
43820;BME280;67762;52.476;6.046;2023-02-15T05:56:06;102693.41;;;0.20;83.50
43820;BME280;67762;52.476;6.046;2023-02-15T05:58:34;102693.16;;;0.27;83.51
43820;BME280;67762;52.476;6.046;2023-02-15T06:01:10;102695.50;;;0.35;83.58
43820;BME280;67762;52.476;6.046;2023-02-15T06:03:36;102702.38;;;0.39;83.60
43820;BME280;67762;52.476;6.046;2023-02-15T06:06:02;102700.47;;;0.42;83.62
43820;BME280;67762;52.476;6.046;2023-02-15T06:08:30;102696.16;;;0.41;83.90
43820;BME280;67762;52.476;6.046;2023-02-15T06:10:56;102700.47;;;0.42;83.79
43820;BME280;67762;52.476;6.046;2023-02-15T06:13:22;102712.66;;;0.45;83.92
43820;BME280;67762;52.476;6.046;2023-02-15T06:15:47;102711.69;;;0.47;83.80
43820;BME280;67762;52.476;6.046;2023-02-15T06:18:13;102702.97;;;0.47;83.84
43820;BME280;67762;52.476;6.046;2023-02-15T06:20:38;102712.59;;;0.46;84.16
43820;BME280;67762;52.476;6.046;2023-02-15T06:23:04;102718.66;;;0.48;83.91
43820;BME280;67762;52.476;6.046;2023-02-15T06:25:29;102710.75;;;0.50;84.03
43820;BME280;67762;52.476;6.046;2023-02-15T06:27:55;102705.53;;;0.48;83.80
43820;BME280;67762;52.476;6.046;2023-02-15T06:30:21;102703.66;;;0.52;83.96
43820;BME280;67762;52.476;6.046;2023-02-15T06:32:46;102705.22;;;0.57;84.30
43820;BME280;67762;52.476;6.046;2023-02-15T06:35:12;102701.50;;;0.63;84.11
43820;BME280;67762;52.476;6.046;2023-02-15T06:37:38;102697.72;;;0.70;84.12
43820;BME280;67762;52.476;6.046;2023-02-15T06:40:04;102706.47;;;0.71;84.04
43820;BME280;67762;52.476;6.046;2023-02-15T06:42:30;102699.38;;;0.73;84.43
43820;BME280;67762;52.476;6.046;2023-02-15T06:44:55;102701.00;;;0.77;84.20
43820;BME280;67762;52.476;6.046;2023-02-15T06:47:21;102702.59;;;0.81;84.27
43820;BME280;67762;52.476;6.046;2023-02-15T06:49:46;102689.41;;;0.82;84.19
43820;BME280;67762;52.476;6.046;2023-02-15T06:52:12;102687.66;;;0.83;84.25
43820;BME280;67762;52.476;6.046;2023-02-15T06:54:38;102686.72;;;0.84;84.27
43820;BME280;67762;52.476;6.046;2023-02-15T06:57:03;102689.41;;;0.82;84.25
43820;BME280;67762;52.476;6.046;2023-02-15T06:59:29;102685.13;;;0.80;84.11
43820;BME280;67762;52.476;6.046;2023-02-15T07:01:54;102684.38;;;0.76;84.30
43820;BME280;67762;52.476;6.046;2023-02-15T07:04:20;102679.91;;;0.78;84.09
43820;BME280;67762;52.476;6.046;2023-02-15T07:06:45;102682.38;;;0.83;84.32
43820;BME280;67762;52.476;6.046;2023-02-15T07:09:11;102681.63;;;0.79;84.38
43820;BME280;67762;52.476;6.046;2023-02-15T07:11:38;102678.09;;;0.80;84.48
43820;BME280;67762;52.476;6.046;2023-02-15T07:14:22;102672.66;;;0.85;84.31
43820;BME280;67762;52.476;6.046;2023-02-15T07:16:47;102677.81;;;0.88;84.41
43820;BME280;67762;52.476;6.046;2023-02-15T07:19:13;102669.84;;;0.89;84.50
43820;BME280;67762;52.476;6.046;2023-02-15T07:21:39;102666.13;;;0.95;84.33
43820;BME280;67762;52.476;6.046;2023-02-15T07:24:04;102666.47;;;1.09;84.55
43820;BME280;67762;52.476;6.046;2023-02-15T07:26:33;102674.34;;;1.32;84.92
43820;BME280;67762;52.476;6.046;2023-02-15T07:28:59;102667.31;;;1.54;85.02
43820;BME280;67762;52.476;6.046;2023-02-15T07:31:24;102669.91;;;1.76;85.19
43820;BME280;67762;52.476;6.046;2023-02-15T07:33:50;102674.28;;;1.97;85.23
43820;BME280;67762;52.476;6.046;2023-02-15T07:36:16;102667.34;;;2.16;85.26
43820;BME280;67762;52.476;6.046;2023-02-15T07:38:41;102670.91;;;2.35;85.60
43820;BME280;67762;52.476;6.046;2023-02-15T07:41:10;102669.28;;;2.52;85.49
43820;BME280;67762;52.476;6.046;2023-02-15T07:43:39;102663.31;;;2.67;85.66
43820;BME280;67762;52.476;6.046;2023-02-15T07:46:14;102668.00;;;2.80;85.70
43820;BME280;67762;52.476;6.046;2023-02-15T07:48:40;102653.47;;;2.90;85.61
43820;BME280;67762;52.476;6.046;2023-02-15T07:51:08;102649.41;;;3.02;85.21
43820;BME280;67762;52.476;6.046;2023-02-15T07:53:35;102663.59;;;3.18;85.43
43820;BME280;67762;52.476;6.046;2023-02-15T07:56:03;102655.78;;;3.34;85.16
43820;BME280;67762;52.476;6.046;2023-02-15T07:58:29;102655.06;;;3.49;85.44
43820;BME280;67762;52.476;6.046;2023-02-15T08:01:14;102644.69;;;3.63;86.01
43820;BME280;67762;52.476;6.046;2023-02-15T08:03:40;102648.34;;;3.78;85.44
43820;BME280;67762;52.476;6.046;2023-02-15T08:06:07;102639.91;;;3.88;85.69
43820;BME280;67762;52.476;6.046;2023-02-15T08:08:35;102647.19;;;4.00;85.28
43820;BME280;67762;52.476;6.046;2023-02-15T08:11:06;102641.28;;;4.12;85.75
43820;BME280;67762;52.476;6.046;2023-02-15T08:18:59;102639.50;;;4.63;86.01
43820;BME280;67762;52.476;6.046;2023-02-15T08:21:27;102635.94;;;4.80;85.58
43820;BME280;67762;52.476;6.046;2023-02-15T08:23:54;102632.53;;;5.09;85.62
43820;BME280;67762;52.476;6.046;2023-02-15T08:26:20;102637.00;;;5.24;85.89
43820;BME280;67762;52.476;6.046;2023-02-15T08:28:46;102627.06;;;5.43;85.67
43820;BME280;67762;52.476;6.046;2023-02-15T08:31:13;102635.25;;;5.54;85.13
43820;BME280;67762;52.476;6.046;2023-02-15T08:33:40;102634.63;;;5.65;85.15
43820;BME280;67762;52.476;6.046;2023-02-15T08:36:12;102633.66;;;5.81;85.33
43820;BME280;67762;52.476;6.046;2023-02-15T08:38:39;102632.91;;;6.09;85.23
43820;BME280;67762;52.476;6.046;2023-02-15T08:43:41;102628.44;;;6.54;84.42
43820;BME280;67762;52.476;6.046;2023-02-15T08:46:08;102625.22;;;6.63;84.55
43820;BME280;67762;52.476;6.046;2023-02-15T08:48:34;102610.91;;;6.79;84.36
43820;BME280;67762;52.476;6.046;2023-02-15T08:51:05;102615.41;;;6.91;84.21
43820;BME280;67762;52.476;6.046;2023-02-15T08:53:31;102614.84;;;7.00;82.91
43820;BME280;67762;52.476;6.046;2023-02-15T08:55:58;102619.94;;;7.03;83.37
43820;BME280;67762;52.476;6.046;2023-02-15T08:58:24;102619.34;;;7.27;82.96
43820;BME280;67762;52.476;6.046;2023-02-15T09:00:50;102616.53;;;7.42;82.29
43820;BME280;67762;52.476;6.046;2023-02-15T09:03:16;102615.72;;;7.54;82.49
43820;BME280;67762;52.476;6.046;2023-02-15T09:05:41;102602.28;;;7.70;81.60
43820;BME280;67762;52.476;6.046;2023-02-15T09:08:07;102609.44;;;7.95;81.57
43820;BME280;67762;52.476;6.046;2023-02-15T09:10:33;102608.63;;;8.19;80.51
43820;BME280;67762;52.476;6.046;2023-02-15T09:12:59;102607.59;;;8.35;80.54
43820;BME280;67762;52.476;6.046;2023-02-15T09:15:25;102597.50;;;8.40;79.29
43820;BME280;67762;52.476;6.046;2023-02-15T09:17:50;102594.41;;;8.46;78.45
43820;BME280;67762;52.476;6.046;2023-02-15T09:20:16;102587.03;;;8.62;77.78
43820;BME280;67762;52.476;6.046;2023-02-15T09:22:42;102593.75;;;8.67;75.71
43820;BME280;67762;52.476;6.046;2023-02-15T09:25:08;102578.75;;;8.54;75.83
43820;BME280;67762;52.476;6.046;2023-02-15T09:27:34;102583.66;;;8.35;72.50
43820;BME280;67762;52.476;6.046;2023-02-15T09:29:59;102583.75;;;8.33;74.15
43820;BME280;67762;52.476;6.046;2023-02-15T09:32:25;102583.75;;;8.46;74.68
43820;BME280;67762;52.476;6.046;2023-02-15T09:34:54;102580.34;;;8.56;74.94
43820;BME280;67762;52.476;6.046;2023-02-15T09:37:23;102585.03;;;8.65;74.20
43820;BME280;67762;52.476;6.046;2023-02-15T09:39:49;102587.91;;;8.62;74.19
43820;BME280;67762;52.476;6.046;2023-02-15T10:06:36;102582.56;;;9.70;69.78
43820;BME280;67762;52.476;6.046;2023-02-15T10:14:21;102583.31;;;9.72;66.37
43820;BME280;67762;52.476;6.046;2023-02-15T10:22:24;102576.22;;;9.94;64.58
43820;BME280;67762;52.476;6.046;2023-02-15T10:25:10;102579.88;;;9.93;64.93
43820;BME280;67762;52.476;6.046;2023-02-15T10:27:45;102583.16;;;10.08;64.71
43820;BME280;67762;52.476;6.046;2023-02-15T10:32:52;102580.47;;;10.32;63.44
43820;BME280;67762;52.476;6.046;2023-02-15T10:35:25;102575.97;;;10.21;63.05
43820;BME280;67762;52.476;6.046;2023-02-15T10:38:23;102579.69;;;10.08;62.47
43820;BME280;67762;52.476;6.046;2023-02-15T10:49:07;102574.94;;;10.11;61.14
43820;BME280;67762;52.476;6.046;2023-02-15T10:54:49;102567.34;;;10.29;61.79
43820;BME280;67762;52.476;6.046;2023-02-15T11:00:45;102561.88;;;10.52;62.22
43820;BME280;67762;52.476;6.046;2023-02-15T11:03:25;102565.06;;;10.57;61.07
43820;BME280;67762;52.476;6.046;2023-02-15T11:08:29;102555.56;;;10.87;61.43
43820;BME280;67762;52.476;6.046;2023-02-15T11:11:00;102545.69;;;11.09;60.73
43820;BME280;67762;52.476;6.046;2023-02-15T11:13:31;102547.22;;;11.23;59.94
43820;BME280;67762;52.476;6.046;2023-02-15T11:16:16;102546.91;;;11.37;59.41
43820;BME280;67762;52.476;6.046;2023-02-15T11:21:45;102539.81;;;11.79;58.50
43820;BME280;67762;52.476;6.046;2023-02-15T11:24:19;102538.72;;;11.82;57.80
43820;BME280;67762;52.476;6.046;2023-02-15T11:26:51;102529.50;;;11.74;56.57
43820;BME280;67762;52.476;6.046;2023-02-15T11:29:31;102542.34;;;11.81;58.09
43820;BME280;67762;52.476;6.046;2023-02-15T11:32:02;102529.72;;;11.83;57.73
43820;BME280;67762;52.476;6.046;2023-02-15T11:34:35;102522.41;;;11.85;57.03
43820;BME280;67762;52.476;6.046;2023-02-15T11:37:13;102514.91;;;11.79;55.77
43820;BME280;67762;52.476;6.046;2023-02-15T11:39:42;102513.84;;;11.91;56.25
43820;BME280;67762;52.476;6.046;2023-02-15T11:42:14;102517.09;;;11.94;55.85
43820;BME280;67762;52.476;6.046;2023-02-15T11:45:19;102516.56;;;12.00;54.98
43820;BME280;67762;52.476;6.046;2023-02-15T11:47:46;102511.56;;;12.16;55.56
43820;BME280;67762;52.476;6.046;2023-02-15T11:50:19;102516.03;;;12.37;55.78
43820;BME280;67762;52.476;6.046;2023-02-15T11:52:49;102511.78;;;12.64;56.18
43820;BME280;67762;52.476;6.046;2023-02-15T11:55:20;102499.09;;;12.66;54.04
43820;BME280;67762;52.476;6.046;2023-02-15T11:58:21;102500.78;;;12.67;53.50
43820;BME280;67762;52.476;6.046;2023-02-15T12:00:52;102489.91;;;12.69;53.79
43820;BME280;67762;52.476;6.046;2023-02-15T12:03:39;102493.59;;;12.68;53.76
43820;BME280;67762;52.476;6.046;2023-02-15T12:06:16;102490.66;;;12.71;54.10
43820;BME280;67762;52.476;6.046;2023-02-15T12:08:50;102487.72;;;12.74;54.02
43820;BME280;67762;52.476;6.046;2023-02-15T12:11:25;102487.81;;;12.72;53.79
43820;BME280;67762;52.476;6.046;2023-02-15T12:14:01;102473.84;;;12.69;52.80
43820;BME280;67762;52.476;6.046;2023-02-15T12:16:29;102464.25;;;12.66;53.21
43820;BME280;67762;52.476;6.046;2023-02-15T12:18:59;102469.50;;;12.68;53.25
43820;BME280;67762;52.476;6.046;2023-02-15T12:21:31;102468.69;;;12.77;54.25
43820;BME280;67762;52.476;6.046;2023-02-15T12:24:18;102452.47;;;12.98;53.98
43820;BME280;67762;52.476;6.046;2023-02-15T12:26:56;102464.44;;;12.84;52.45
43820;BME280;67762;52.476;6.046;2023-02-15T12:29:27;102454.03;;;12.90;53.16
43820;BME280;67762;52.476;6.046;2023-02-15T12:31:53;102454.19;;;12.99;52.93
43820;BME280;67762;52.476;6.046;2023-02-15T12:34:26;102445.28;;;12.98;52.90
43820;BME280;67762;52.476;6.046;2023-02-15T12:36:56;102443.59;;;13.07;53.21
43820;BME280;67762;52.476;6.046;2023-02-15T12:39:25;102441.34;;;13.02;52.58
43820;BME280;67762;52.476;6.046;2023-02-15T12:44:35;102417.34;;;13.01;52.89
43820;BME280;67762;52.476;6.046;2023-02-15T12:47:03;102418.06;;;12.93;51.88
43820;BME280;67762;52.476;6.046;2023-02-15T12:49:33;102404.13;;;12.99;53.02
43820;BME280;67762;52.476;6.046;2023-02-15T12:52:02;102410.63;;;13.16;53.17
43820;BME280;67762;52.476;6.046;2023-02-15T12:54:46;102404.66;;;13.22;52.08
43820;BME280;67762;52.476;6.046;2023-02-15T12:57:31;102409.47;;;13.09;52.24
43820;BME280;67762;52.476;6.046;2023-02-15T13:00:04;102409.34;;;13.10;52.61
43820;BME280;67762;52.476;6.046;2023-02-15T13:05:13;102410.44;;;13.36;53.74
43820;BME280;67762;52.476;6.046;2023-02-15T13:07:45;102411.84;;;13.40;53.19
43820;BME280;67762;52.476;6.046;2023-02-15T13:10:29;102413.00;;;13.28;52.26
43820;BME280;67762;52.476;6.046;2023-02-15T13:12:56;102404.53;;;13.23;52.94
43820;BME280;67762;52.476;6.046;2023-02-15T13:15:35;102403.13;;;13.29;52.60
43820;BME280;67762;52.476;6.046;2023-02-15T13:18:03;102405.66;;;13.30;52.14
43820;BME280;67762;52.476;6.046;2023-02-15T13:20:29;102408.59;;;13.37;51.23
43820;BME280;67762;52.476;6.046;2023-02-15T13:23:01;102396.59;;;13.51;51.97
43820;BME280;67762;52.476;6.046;2023-02-15T13:25:34;102392.22;;;13.86;52.18
43820;BME280;67762;52.476;6.046;2023-02-15T13:28:04;102376.69;;;14.17;50.58
43820;BME280;67762;52.476;6.046;2023-02-15T13:30:38;102364.75;;;14.29;51.09
43820;BME280;67762;52.476;6.046;2023-02-15T13:36:02;102370.09;;;14.56;49.60
43820;BME280;67762;52.476;6.046;2023-02-15T13:41:29;102356.59;;;14.48;49.72
43820;BME280;67762;52.476;6.046;2023-02-15T13:44:19;102355.19;;;14.44;49.80
43820;BME280;67762;52.476;6.046;2023-02-15T13:49:43;102354.31;;;13.99;49.75
43820;BME280;67762;52.476;6.046;2023-02-15T13:52:24;102347.34;;;13.79;49.70
43820;BME280;67762;52.476;6.046;2023-02-15T14:01:20;102347.34;;;13.42;50.85
43820;BME280;67762;52.476;6.046;2023-02-15T14:13:11;102344.88;;;13.21;52.36
43820;BME280;67762;52.476;6.046;2023-02-15T14:18:33;102360.69;;;13.15;52.16
43820;BME280;67762;52.476;6.046;2023-02-15T14:21:04;102355.16;;;13.16;52.38
43820;BME280;67762;52.476;6.046;2023-02-15T14:26:43;102347.56;;;13.02;52.69
43820;BME280;67762;52.476;6.046;2023-02-15T14:31:43;102344.03;;;12.92;53.90
43820;BME280;67762;52.476;6.046;2023-02-15T14:36:44;102333.75;;;12.78;54.40
43820;BME280;67762;52.476;6.046;2023-02-15T14:42:21;102342.94;;;12.66;54.08
43820;BME280;67762;52.476;6.046;2023-02-15T14:45:02;102347.00;;;12.60;55.51
43820;BME280;67762;52.476;6.046;2023-02-15T14:47:37;102339.81;;;12.61;55.20
43820;BME280;67762;52.476;6.046;2023-02-15T14:56:17;102336.41;;;12.40;55.07
43820;BME280;67762;52.476;6.046;2023-02-15T15:01:15;102337.25;;;12.30;56.52
43820;BME280;67762;52.476;6.046;2023-02-15T15:03:51;102346.66;;;12.25;55.92
43820;BME280;67762;52.476;6.046;2023-02-15T15:06:26;102341.03;;;12.18;56.11
43820;BME280;67762;52.476;6.046;2023-02-15T15:08:58;102348.19;;;12.08;57.04
43820;BME280;67762;52.476;6.046;2023-02-15T15:13:58;102340.97;;;11.90;57.50
43820;BME280;67762;52.476;6.046;2023-02-15T15:19:09;102335.53;;;11.70;58.40
43820;BME280;67762;52.476;6.046;2023-02-15T15:22:02;102338.38;;;11.58;58.87
43820;BME280;67762;52.476;6.046;2023-02-15T15:27:38;102328.47;;;11.39;59.51
43820;BME280;67762;52.476;6.046;2023-02-15T15:35:49;102328.44;;;11.09;59.84
43820;BME280;67762;52.476;6.046;2023-02-15T15:38:54;102328.50;;;10.98;60.60
43820;BME280;67762;52.476;6.046;2023-02-15T15:41:41;102334.59;;;10.89;60.99
43820;BME280;67762;52.476;6.046;2023-02-15T15:44:26;102337.22;;;10.79;61.00